Time;durP1;ratioP1;P1;durP2;ratioP2;P2;SDS_P1;SDS_P2;PMS_P1;PMS_P2;Temp;Humidity;BMP_temperature;BMP_pressure;BME280_temperature;BME280_humidity;BME280_pressure;Samples;Min_cycle;Max_cycle;Signal;HPM_P1;HPM_P2
2021/12/28 00:01:11;;;;;;;32.63;23.08;;;;;;;;;;9989307;29;20089;-58
2021/12/28 00:06:10;;;;;;;12.13;10.07;;;;;;;;;;9993051;29;20086;-58
2021/12/28 00:11:09;;;;;;;8.70;7.80;;;;;;;;;;10011563;29;20451;-57
2021/12/28 00:21:25;;;;;;;12.55;10.55;;;;;;;;;;10013541;29;20090;-58
2021/12/28 00:26:24;;;;;;;11.20;9.93;;;;;;;;;;10026176;29;20086;-58
2021/12/28 00:31:26;;;;;;;11.70;9.48;;;;;;;;;;9991565;29;20525;-58
2021/12/28 00:36:24;;;;;;;10.93;9.82;;;;;;;;;;9987331;29;20106;-58
2021/12/28 00:41:23;;;;;;;9.70;8.70;;;;;;;;;;9990041;29;20494;-58
2021/12/28 00:46:21;;;;;;;10.10;8.95;;;;;;;;;;10011548;29;20059;-56
2021/12/28 00:51:21;;;;;;;15.10;11.57;;;;;;;;;;10018991;29;20075;-57
2021/12/28 00:56:19;;;;;;;13.60;11.70;;;;;;;;;;10022161;29;20079;-58
2021/12/28 01:01:17;;;;;;;12.48;9.85;;;;;;;;;;9993346;29;20509;-58
2021/12/28 01:06:16;;;;;;;14.13;12.02;;;;;;;;;;9987716;29;20079;-58
2021/12/28 01:11:16;;;;;;;21.27;16.42;;;;;;;;;;10010613;29;20088;-58
2021/12/28 01:16:14;;;;;;;11.35;10.13;;;;;;;;;;10018680;29;20067;-58
2021/12/28 01:21:12;;;;;;;12.27;10.20;;;;;;;;;;10020780;29;20106;-56
2021/12/28 01:26:11;;;;;;;21.73;15.32;;;;;;;;;;9994734;29;20075;-57
2021/12/28 01:31:11;;;;;;;21.05;14.30;;;;;;;;;;9986192;29;20079;-57
2021/12/28 01:36:09;;;;;;;32.05;17.90;;;;;;;;;;9986736;29;20086;-58
2021/12/28 01:41:10;;;;;;;16.52;12.68;;;;;;;;;;9986368;29;20093;-57
2021/12/28 01:46:08;;;;;;;28.10;18.90;;;;;;;;;;9985940;29;20072;-58
2021/12/28 01:51:11;;;;;;;19.70;13.30;;;;;;;;;;10008796;29;20067;-58
2021/12/28 01:56:10;;;;;;;18.77;13.43;;;;;;;;;;10016751;29;20075;-58
2021/12/28 02:01:10;;;;;;;13.73;11.05;;;;;;;;;;9994840;29;20076;-59
2021/12/28 02:06:10;;;;;;;14.77;11.90;;;;;;;;;;9985826;29;20080;-59
2021/12/28 02:11:10;;;;;;;33.10;18.98;;;;;;;;;;9984799;29;20079;-59
2021/12/28 02:16:08;;;;;;;16.38;11.60;;;;;;;;;;9985650;29;20071;-59
2021/12/28 02:21:08;;;;;;;15.07;10.80;;;;;;;;;;9986032;29;20079;-58
2021/12/28 02:26:07;;;;;;;13.35;9.95;;;;;;;;;;9993974;29;20075;-59
2021/12/28 02:31:05;;;;;;;12.75;10.57;;;;;;;;;;9985520;29;20515;-58
2021/12/28 02:36:04;;;;;;;13.45;11.82;;;;;;;;;;9991917;29;20493;-59
2021/12/28 02:41:04;;;;;;;12.68;11.02;;;;;;;;;;10014083;29;20079;-58
2021/12/28 02:46:05;;;;;;;13.35;10.13;;;;;;;;;;10022018;29;20513;-58
2021/12/28 02:51:04;;;;;;;15.52;11.48;;;;;;;;;;10025601;29;20923;-58
2021/12/28 02:56:05;;;;;;;16.77;12.95;;;;;;;;;;10038186;29;20075;-59
2021/12/28 03:01:05;;;;;;;27.52;19.50;;;;;;;;;;10021775;29;20512;-59
2021/12/28 03:06:05;;;;;;;20.02;15.30;;;;;;;;;;10031152;29;20547;-58
2021/12/28 03:11:05;;;;;;;23.70;17.13;;;;;;;;;;10018049;29;20072;-59
2021/12/28 03:16:04;;;;;;;17.40;14.15;;;;;;;;;;9990241;29;20079;-59
2021/12/28 03:21:04;;;;;;;20.27;13.80;;;;;;;;;;10000129;29;20450;-58
2021/12/28 03:26:02;;;;;;;14.50;12.45;;;;;;;;;;9994619;29;20075;-58
2021/12/28 03:31:02;;;;;;;13.82;11.93;;;;;;;;;;10009204;29;20072;-59
2021/12/28 03:36:01;;;;;;;15.98;13.00;;;;;;;;;;10020548;29;20070;-58
2021/12/28 03:41:00;;;;;;;15.13;13.02;;;;;;;;;;10026369;29;20075;-58
2021/12/28 03:45:58;;;;;;;19.15;14.38;;;;;;;;;;9993681;29;20083;-59
2021/12/28 03:50:58;;;;;;;15.65;13.35;;;;;;;;;;9989475;29;20553;-58
2021/12/28 03:55:56;;;;;;;19.95;15.10;;;;;;;;;;9990863;29;20080;-59
2021/12/28 04:00:55;;;;;;;39.22;21.00;;;;;;;;;;9990186;29;20071;-58
2021/12/28 04:05:53;;;;;;;23.85;17.60;;;;;;;;;;9998039;29;20076;-58
2021/12/28 04:10:55;;;;;;;26.75;19.60;;;;;;;;;;9988805;29;20075;-58
2021/12/28 04:15:54;;;;;;;25.90;18.23;;;;;;;;;;9989299;29;20446;-58
2021/12/28 04:20:52;;;;;;;23.30;18.35;;;;;;;;;;9988098;29;20568;-58
2021/12/28 04:25:51;;;;;;;16.15;13.52;;;;;;;;;;9989133;29;20079;-58
2021/12/28 04:30:50;;;;;;;21.20;17.15;;;;;;;;;;9988802;29;20135;-58
2021/12/28 04:35:49;;;;;;;22.60;15.70;;;;;;;;;;9987397;29;20497;-58
2021/12/28 04:40:47;;;;;;;23.98;16.95;;;;;;;;;;9997268;29;20111;-58
2021/12/28 04:45:46;;;;;;;30.63;19.23;;;;;;;;;;9983520;29;20071;-59
2021/12/28 04:50:45;;;;;;;35.75;22.98;;;;;;;;;;9984839;29;20071;-59
2021/12/28 04:55:44;;;;;;;39.85;26.35;;;;;;;;;;9985789;29;20067;-59
2021/12/28 05:00:43;;;;;;;23.58;18.10;;;;;;;;;;10008240;29;20076;-57
2021/12/28 05:05:43;;;;;;;27.20;19.55;;;;;;;;;;10013893;29;20063;-57
2021/12/28 05:10:43;;;;;;;20.92;14.38;;;;;;;;;;9995913;29;20082;-58
2021/12/28 05:15:44;;;;;;;18.10;14.65;;;;;;;;;;9987903;29;20479;-58
2021/12/28 05:20:44;;;;;;;19.35;14.73;;;;;;;;;;10000729;29;20087;-57
2021/12/28 05:25:44;;;;;;;41.55;25.55;;;;;;;;;;10011117;29;20678;-58
2021/12/28 05:30:43;;;;;;;54.72;37.38;;;;;;;;;;10013717;29;20056;-59
2021/12/28 05:35:41;;;;;;;24.15;17.27;;;;;;;;;;9993871;29;20075;-58
2021/12/28 05:40:39;;;;;;;18.85;14.65;;;;;;;;;;9988307;29;20072;-58
2021/12/28 05:45:39;;;;;;;22.95;17.70;;;;;;;;;;9992900;29;20071;-58
2021/12/28 05:50:38;;;;;;;19.85;15.63;;;;;;;;;;10007327;29;20091;-59
2021/12/28 05:55:36;;;;;;;28.02;18.23;;;;;;;;;;10012522;29;20087;-58
2021/12/28 06:00:34;;;;;;;69.22;37.67;;;;;;;;;;10020991;29;20068;-58
2021/12/28 06:05:34;;;;;;;61.47;37.72;;;;;;;;;;9998989;29;20072;-59
2021/12/28 06:10:32;;;;;;;60.83;42.05;;;;;;;;;;9995596;29;20450;-58
2021/12/28 06:15:31;;;;;;;29.77;22.65;;;;;;;;;;9993431;29;20095;-58
2021/12/28 06:20:29;;;;;;;41.78;30.10;;;;;;;;;;9997262;29;20532;-55
2021/12/28 06:25:29;;;;;;;36.78;28.80;;;;;;;;;;9990379;29;20064;-58
2021/12/28 06:30:27;;;;;;;162.60;125.07;;;;;;;;;;9986415;29;20083;-55
2021/12/28 06:35:25;;;;;;;61.65;44.63;;;;;;;;;;9979047;29;20068;-58
2021/12/28 06:40:23;;;;;;;49.67;32.33;;;;;;;;;;9990224;29;20067;-58
2021/12/28 06:45:23;;;;;;;41.35;30.88;;;;;;;;;;9981244;29;20514;-58
2021/12/28 06:50:21;;;;;;;40.00;31.08;;;;;;;;;;9985982;29;20091;-58
2021/12/28 06:55:20;;;;;;;40.35;29.42;;;;;;;;;;9989367;29;20087;-59
2021/12/28 07:00:19;;;;;;;55.28;29.92;;;;;;;;;;9994765;29;20068;-57
2021/12/28 07:05:18;;;;;;;32.55;25.13;;;;;;;;;;9969262;29;20072;-56
2021/12/28 07:10:20;;;;;;;26.90;19.80;;;;;;;;;;9983242;29;20080;-56
2021/12/28 07:15:19;;;;;;;65.15;42.30;;;;;;;;;;9981426;29;20076;-55
2021/12/28 07:20:18;;;;;;;31.02;23.88;;;;;;;;;;9986441;29;20071;-57
2021/12/28 07:25:17;;;;;;;31.38;23.13;;;;;;;;;;9993487;29;20466;-57
2021/12/28 07:30:15;;;;;;;32.70;21.35;;;;;;;;;;9996888;29;20075;-57
2021/12/28 07:35:13;;;;;;;61.03;40.97;;;;;;;;;;9996594;29;20076;-58
2021/12/28 07:40:14;;;;;;;40.92;30.80;;;;;;;;;;9994724;29;20063;-59
2021/12/28 07:45:13;;;;;;;38.60;28.73;;;;;;;;;;9986998;29;20422;-59
2021/12/28 07:50:13;;;;;;;60.80;39.85;;;;;;;;;;9999941;29;20067;-59
2021/12/28 07:55:13;;;;;;;19.13;14.80;;;;;;;;;;9992273;29;20072;-60
2021/12/28 08:00:13;;;;;;;51.72;32.75;;;;;;;;;;9993168;29;20067;-58
2021/12/28 08:05:11;;;;;;;42.58;28.13;;;;;;;;;;9983891;29;20080;-58
2021/12/28 08:10:10;;;;;;;31.60;22.60;;;;;;;;;;9993186;29;20544;-59
2021/12/28 08:15:11;;;;;;;36.40;23.33;;;;;;;;;;9999721;29;20320;-59
2021/12/28 08:20:11;;;;;;;25.42;16.50;;;;;;;;;;9997746;29;20088;-59
2021/12/28 08:25:10;;;;;;;38.90;26.75;;;;;;;;;;10013858;29;20517;-59
2021/12/28 08:30:11;;;;;;;29.15;18.65;;;;;;;;;;9982344;29;20091;-59
2021/12/28 08:35:10;;;;;;;39.60;26.30;;;;;;;;;;9990639;29;20079;-59
2021/12/28 08:40:10;;;;;;;23.55;19.08;;;;;;;;;;9991370;29;20319;-59
2021/12/28 08:45:09;;;;;;;17.15;13.30;;;;;;;;;;9986778;29;20076;-58
2021/12/28 08:50:10;;;;;;;18.73;13.23;;;;;;;;;;9988446;29;20068;-58
2021/12/28 08:55:09;;;;;;;48.08;29.23;;;;;;;;;;9983746;29;20087;-58
2021/12/28 09:00:09;;;;;;;32.05;21.58;;;;;;;;;;9985360;29;20064;-59
2021/12/28 09:05:07;;;;;;;37.97;27.27;;;;;;;;;;9982235;29;20090;-59
2021/12/28 09:10:07;;;;;;;34.35;24.75;;;;;;;;;;9982948;29;20632;-59
2021/12/28 09:15:06;;;;;;;53.35;36.00;;;;;;;;;;9989788;29;20071;-58
2021/12/28 09:20:06;;;;;;;25.00;18.23;;;;;;;;;;9987601;29;20475;-58
2021/12/28 09:25:09;;;;;;;46.80;35.78;;;;;;;;;;10002354;29;20494;-58
2021/12/28 09:30:07;;;;;;;28.45;20.25;;;;;;;;;;9997785;29;20485;-59
2021/12/28 09:35:06;;;;;;;35.83;23.75;;;;;;;;;;9999488;29;20510;-58
2021/12/28 09:40:06;;;;;;;27.15;18.98;;;;;;;;;;9980144;29;20087;-59
2021/12/28 09:45:08;;;;;;;40.45;25.58;;;;;;;;;;9988814;29;20458;-60
2021/12/28 09:50:06;;;;;;;25.27;19.15;;;;;;;;;;9998889;29;20064;-59
2021/12/28 09:55:05;;;;;;;22.23;16.75;;;;;;;;;;9999909;29;20067;-59
2021/12/28 10:00:07;;;;;;;24.60;17.35;;;;;;;;;;10021362;29;20124;-60
2021/12/28 10:05:08;;;;;;;53.95;42.92;;;;;;;;;;10002937;29;20089;-59
2021/12/28 10:10:07;;;;;;;20.73;16.92;;;;;;;;;;9983859;29;20083;-57
2021/12/28 10:15:08;;;;;;;23.55;17.58;;;;;;;;;;9986225;29;20088;-60
2021/12/28 10:20:10;;;;;;;33.72;25.33;;;;;;;;;;9993004;29;20076;-58
2021/12/28 10:25:10;;;;;;;21.95;16.10;;;;;;;;;;9995120;29;20071;-59
2021/12/28 10:30:10;;;;;;;34.47;28.10;;;;;;;;;;10002086;29;20479;-58
2021/12/28 10:35:11;;;;;;;67.10;59.00;;;;;;;;;;9979366;29;20511;-59
2021/12/28 10:40:11;;;;;;;33.83;23.83;;;;;;;;;;9982637;29;20080;-58
2021/12/28 10:45:11;;;;;;;47.75;38.78;;;;;;;;;;9994036;29;20079;-57
2021/12/28 10:50:27;;;;;;;17.75;13.35;;;;;;;;;;9974728;29;20068;-58
2021/12/28 10:55:25;;;;;;;;;;;;;;;;;;9986583;29;20088;-58
2021/12/28 11:00:26;;;;;;;27.85;22.02;;;;;;;;;;9987918;29;20287;-59
2021/12/28 11:05:30;;;;;;;73.10;56.42;;;;;;;;;;9988023;29;20482;-59
2021/12/28 11:10:28;;;;;;;40.33;34.70;;;;;;;;;;9988128;29;20072;-59
2021/12/28 11:15:32;;;;;;;34.70;26.08;;;;;;;;;;9983827;29;20088;-59
2021/12/28 11:20:30;;;;;;;46.97;34.22;;;;;;;;;;9987119;29;20098;-59
2021/12/28 11:25:30;;;;;;;20.38;16.45;;;;;;;;;;9984563;29;20489;-59
2021/12/28 11:30:30;;;;;;;31.65;25.02;;;;;;;;;;9987557;29;20087;-59
2021/12/28 11:35:28;;;;;;;41.75;29.35;;;;;;;;;;9990358;29;20080;-58
2021/12/28 11:40:26;;;;;;;32.80;26.35;;;;;;;;;;9990913;29;20079;-59
2021/12/28 11:45:25;;;;;;;36.35;26.77;;;;;;;;;;9985235;29;20079;-59
2021/12/28 11:50:24;;;;;;;61.38;45.08;;;;;;;;;;9987329;29;20060;-59
2021/12/28 11:55:23;;;;;;;31.60;21.50;;;;;;;;;;9981192;29;20080;-59
2021/12/28 12:00:22;;;;;;;23.13;16.83;;;;;;;;;;9984633;29;20456;-58
2021/12/28 12:05:23;;;;;;;31.52;24.58;;;;;;;;;;10000885;29;20468;-59
2021/12/28 12:10:34;;;;;;;31.30;22.75;;;;;;;;;;10005277;29;20069;-58
2021/12/28 12:15:38;;;;;;;34.72;25.65;;;;;;;;;;10020529;29;20095;-58
2021/12/28 12:20:37;;;;;;;35.63;25.35;;;;;;;;;;9986499;29;20076;-58
2021/12/28 12:25:47;;;;;;;42.63;28.85;;;;;;;;;;9984317;29;20092;-58
2021/12/28 12:30:47;;;;;;;51.15;35.83;;;;;;;;;;9979664;29;20084;-58
2021/12/28 12:35:50;;;;;;;46.28;33.22;;;;;;;;;;9986630;29;20080;-59
2021/12/28 12:40:53;;;;;;;44.95;32.55;;;;;;;;;;9986571;29;20072;-59
2021/12/28 12:46:05;;;;;;;48.47;33.75;;;;;;;;;;9986878;29;20080;-58
2021/12/28 12:51:24;;;;;;;57.25;39.97;;;;;;;;;;9988482;29;20076;-58
2021/12/28 12:56:25;;;;;;;52.28;36.10;;;;;;;;;;9997667;29;20091;-58
2021/12/28 13:01:36;;;;;;;55.05;38.75;;;;;;;;;;9990786;29;20072;-58
2021/12/28 13:06:53;;;;;;;77.95;52.65;;;;;;;;;;9974323;29;20063;-59
2021/12/28 13:11:53;;;;;;;60.50;41.65;;;;;;;;;;9995150;29;20366;-59
2021/12/28 13:16:55;;;;;;;66.28;48.67;;;;;;;;;;9982639;29;20519;-58
2021/12/28 13:21:57;;;;;;;77.28;52.80;;;;;;;;;;9994507;29;20080;-59
2021/12/28 13:26:59;;;;;;;56.63;38.28;;;;;;;;;;9989978;29;20138;-58
2021/12/28 13:32:11;;;;;;;55.65;39.70;;;;;;;;;;9993165;29;20083;-59
2021/12/28 13:37:09;;;;;;;46.22;35.13;;;;;;;;;;9976485;29;20060;-58
2021/12/28 13:42:09;;;;;;;48.15;34.28;;;;;;;;;;9989348;29;20059;-58
2021/12/28 13:47:07;;;;;;;136.45;85.55;;;;;;;;;;9987575;29;20056;-58
2021/12/28 13:52:06;;;;;;;120.72;77.18;;;;;;;;;;9980049;29;20521;-58
2021/12/28 13:57:06;;;;;;;116.00;73.90;;;;;;;;;;10013392;29;20087;-58
2021/12/28 14:02:06;;;;;;;70.65;42.80;;;;;;;;;;9977018;29;20091;-59
2021/12/28 14:07:10;;;;;;;103.22;73.18;;;;;;;;;;9980704;29;20067;-58
2021/12/28 14:12:10;;;;;;;79.25;48.10;;;;;;;;;;9975269;29;20087;-59
2021/12/28 14:17:14;;;;;;;131.70;80.50;;;;;;;;;;9979298;29;20510;-59
2021/12/28 14:22:13;;;;;;;78.05;47.30;;;;;;;;;;9974655;29;20072;-59
2021/12/28 14:27:14;;;;;;;73.30;44.67;;;;;;;;;;9979240;29;20536;-59
2021/12/28 14:32:14;;;;;;;63.28;40.03;;;;;;;;;;9999119;29;20130;-58
2021/12/28 14:37:14;;;;;;;69.32;40.95;;;;;;;;;;9981861;29;20083;-58
2021/12/28 14:42:13;;;;;;;92.05;56.22;;;;;;;;;;9999690;29;20078;-58
2021/12/28 14:47:17;;;;;;;72.13;37.83;;;;;;;;;;10018454;29;20059;-58
2021/12/28 14:52:17;;;;;;;74.80;45.10;;;;;;;;;;10029790;29;20647;-58
2021/12/28 14:57:15;;;;;;;85.70;50.15;;;;;;;;;;10039889;29;20071;-58
2021/12/28 15:02:16;;;;;;;86.63;50.20;;;;;;;;;;9982332;29;20063;-58
2021/12/28 15:07:16;;;;;;;77.95;43.67;;;;;;;;;;9978483;29;20059;-59
2021/12/28 15:12:15;;;;;;;75.78;44.60;;;;;;;;;;9984626;29;20098;-58
2021/12/28 15:17:14;;;;;;;108.45;58.17;;;;;;;;;;9985354;29;20091;-59
2021/12/28 15:22:12;;;;;;;90.32;55.10;;;;;;;;;;9986762;29;20075;-59
2021/12/28 15:27:13;;;;;;;63.22;39.00;;;;;;;;;;9984325;29;20067;-59
2021/12/28 15:32:11;;;;;;;59.97;39.92;;;;;;;;;;9996950;29;20098;-59
2021/12/28 15:37:10;;;;;;;53.47;35.72;;;;;;;;;;9986225;29;20083;-59
2021/12/28 15:42:08;;;;;;;61.53;38.50;;;;;;;;;;9996195;29;20076;-59
2021/12/28 15:47:08;;;;;;;74.50;45.55;;;;;;;;;;9984134;29;20072;-59
2021/12/28 15:52:06;;;;;;;64.10;39.22;;;;;;;;;;10020686;29;20581;-59
2021/12/28 15:57:04;;;;;;;71.95;43.03;;;;;;;;;;9996589;29;20496;-59
2021/12/28 16:02:03;;;;;;;63.95;39.83;;;;;;;;;;9980098;29;20079;-59
2021/12/28 16:07:03;;;;;;;55.10;35.92;;;;;;;;;;9987060;29;20075;-60
2021/12/28 16:12:01;;;;;;;79.22;50.20;;;;;;;;;;9989777;29;20059;-59
2021/12/28 16:16:59;;;;;;;62.97;39.50;;;;;;;;;;9989999;29;20433;-60
2021/12/28 16:21:58;;;;;;;85.47;51.25;;;;;;;;;;9976208;29;20146;-59
2021/12/28 16:26:57;;;;;;;118.50;60.13;;;;;;;;;;9982694;29;20075;-60
2021/12/28 16:31:56;;;;;;;166.40;78.05;;;;;;;;;;9991277;29;20079;-60
2021/12/28 16:36:54;;;;;;;106.85;57.03;;;;;;;;;;9990794;29;20087;-58
2021/12/28 16:41:54;;;;;;;119.38;63.17;;;;;;;;;;9995768;29;20087;-59
2021/12/28 16:46:55;;;;;;;136.60;70.35;;;;;;;;;;9986004;29;20473;-59
2021/12/28 16:51:53;;;;;;;106.68;54.58;;;;;;;;;;9993362;29;20318;-60
2021/12/28 16:56:52;;;;;;;110.50;57.45;;;;;;;;;;9977201;29;20319;-60
2021/12/28 17:01:52;;;;;;;89.57;53.42;;;;;;;;;;9980260;29;20068;-60
2021/12/28 17:06:52;;;;;;;48.95;29.83;;;;;;;;;;9993918;29;20105;-60
2021/12/28 17:11:51;;;;;;;97.68;55.88;;;;;;;;;;9983326;29;20072;-60
2021/12/28 17:16:49;;;;;;;70.50;37.47;;;;;;;;;;9988267;29;20074;-60
2021/12/28 17:21:48;;;;;;;82.60;45.05;;;;;;;;;;9983465;29;20068;-60
2021/12/28 17:26:47;;;;;;;67.68;43.63;;;;;;;;;;9984793;29;20079;-60
2021/12/28 17:31:45;;;;;;;55.80;32.95;;;;;;;;;;9976488;29;20083;-58
2021/12/28 17:36:44;;;;;;;72.95;45.92;;;;;;;;;;9986535;29;20092;-58
2021/12/28 17:41:43;;;;;;;66.25;37.47;;;;;;;;;;9979850;29;20076;-58
2021/12/28 17:46:42;;;;;;;57.42;34.63;;;;;;;;;;9982208;29;20065;-58
2021/12/28 17:51:42;;;;;;;49.72;32.65;;;;;;;;;;9986674;29;20083;-58
2021/12/28 17:56:40;;;;;;;60.40;36.92;;;;;;;;;;10001853;29;20072;-58
2021/12/28 18:01:39;;;;;;;82.97;40.70;;;;;;;;;;9979427;29;20080;-59
2021/12/28 18:06:39;;;;;;;50.45;32.15;;;;;;;;;;9970606;29;20071;-60
2021/12/28 18:11:37;;;;;;;40.28;26.05;;;;;;;;;;9987922;29;20067;-60
2021/12/28 18:16:35;;;;;;;50.45;27.38;;;;;;;;;;9983202;29;20083;-60
2021/12/28 18:21:34;;;;;;;44.72;28.05;;;;;;;;;;9986776;29;20510;-60
2021/12/28 18:26:33;;;;;;;34.60;22.50;;;;;;;;;;9989499;29;20071;-60
2021/12/28 18:31:32;;;;;;;39.80;25.83;;;;;;;;;;9975316;29;20084;-59
2021/12/28 18:36:30;;;;;;;38.97;26.98;;;;;;;;;;9981946;29;20072;-60
2021/12/28 18:41:30;;;;;;;35.30;22.98;;;;;;;;;;9978537;29;20064;-59
2021/12/28 18:46:30;;;;;;;32.50;19.52;;;;;;;;;;9973500;29;20086;-60
2021/12/28 18:51:28;;;;;;;32.72;20.10;;;;;;;;;;9978840;29;20080;-59
2021/12/28 18:56:33;;;;;;;38.53;24.35;;;;;;;;;;9980918;29;20068;-60
2021/12/28 19:01:45;;;;;;;42.60;27.88;;;;;;;;;;9971955;29;20814;-58
2021/12/28 19:06:46;;;;;;;41.17;28.27;;;;;;;;;;9989948;29;20064;-59
2021/12/28 19:11:44;;;;;;;54.67;38.15;;;;;;;;;;9975493;29;20459;-58
2021/12/28 19:16:42;;;;;;;65.32;39.72;;;;;;;;;;9984589;29;20060;-58
2021/12/28 19:21:42;;;;;;;38.40;25.90;;;;;;;;;;9985142;29;20084;-58
2021/12/28 19:26:41;;;;;;;30.90;22.08;;;;;;;;;;9990188;29;20076;-58
2021/12/28 19:31:39;;;;;;;65.47;34.42;;;;;;;;;;9996517;29;20082;-58
2021/12/28 19:36:38;;;;;;;50.63;29.70;;;;;;;;;;9984021;29;20068;-58
2021/12/28 19:41:37;;;;;;;62.95;34.10;;;;;;;;;;9986859;29;20092;-59
2021/12/28 19:46:36;;;;;;;43.10;27.17;;;;;;;;;;9993272;29;20111;-58
2021/12/28 19:51:36;;;;;;;63.65;34.17;;;;;;;;;;9992554;29;20091;-59
2021/12/28 19:56:34;;;;;;;53.90;32.28;;;;;;;;;;9988824;29;20553;-59
2021/12/28 20:01:34;;;;;;;42.22;25.38;;;;;;;;;;9983444;29;20072;-58
2021/12/28 20:06:33;;;;;;;53.92;31.95;;;;;;;;;;9982606;29;20151;-58
2021/12/28 20:11:32;;;;;;;44.28;28.65;;;;;;;;;;9992144;29;20083;-58
2021/12/28 20:16:31;;;;;;;51.58;29.77;;;;;;;;;;9987368;29;20063;-59
2021/12/28 20:21:30;;;;;;;37.85;23.77;;;;;;;;;;9976082;29;20083;-55
2021/12/28 20:26:29;;;;;;;49.65;27.00;;;;;;;;;;9978265;29;20492;-58
2021/12/28 20:31:27;;;;;;;35.08;23.80;;;;;;;;;;9998541;29;20095;-59
2021/12/28 20:36:26;;;;;;;45.45;29.95;;;;;;;;;;9993769;29;20075;-58
2021/12/28 20:41:26;;;;;;;45.25;27.42;;;;;;;;;;9987150;29;20480;-60
2021/12/28 20:46:24;;;;;;;47.63;29.75;;;;;;;;;;9992007;29;20422;-59
2021/12/28 20:51:22;;;;;;;47.10;28.08;;;;;;;;;;9991846;29;20112;-60
2021/12/28 20:56:42;;;;;;;45.35;26.08;;;;;;;;;;9972407;29;20469;-60
2021/12/28 21:01:40;;;;;;;63.80;26.58;;;;;;;;;;9981305;29;20083;-60
2021/12/28 21:06:40;;;;;;;85.72;48.90;;;;;;;;;;9979037;29;20088;-59
2021/12/28 21:11:38;;;;;;;80.63;43.83;;;;;;;;;;9977504;29;20064;-60
2021/12/28 21:16:38;;;;;;;94.38;46.33;;;;;;;;;;9996124;29;21083;-60
2021/12/28 21:21:37;;;;;;;110.78;58.58;;;;;;;;;;9993694;29;20079;-59
2021/12/28 21:26:36;;;;;;;131.15;60.85;;;;;;;;;;9975082;29;20068;-58
2021/12/28 21:31:35;;;;;;;79.13;41.97;;;;;;;;;;9993401;29;20080;-60
2021/12/28 21:36:35;;;;;;;51.80;32.30;;;;;;;;;;10001550;29;20079;-59
2021/12/28 21:41:33;;;;;;;48.85;29.75;;;;;;;;;;10017660;29;20087;-59
2021/12/28 21:46:32;;;;;;;53.95;34.15;;;;;;;;;;9991167;29;20087;-60
2021/12/28 21:51:30;;;;;;;51.72;28.95;;;;;;;;;;9991374;29;20090;-60
2021/12/28 21:56:30;;;;;;;42.53;27.20;;;;;;;;;;9991070;29;20506;-59
2021/12/28 22:01:28;;;;;;;53.05;30.20;;;;;;;;;;9991981;29;20072;-59
2021/12/28 22:06:27;;;;;;;39.67;24.83;;;;;;;;;;9985803;29;20079;-59
2021/12/28 22:11:27;;;;;;;45.50;30.42;;;;;;;;;;9981104;29;20083;-59
2021/12/28 22:16:27;;;;;;;43.83;27.67;;;;;;;;;;9977212;29;20151;-58
2021/12/28 22:21:26;;;;;;;49.13;27.05;;;;;;;;;;9995374;29;20110;-58
2021/12/28 22:26:24;;;;;;;37.17;27.25;;;;;;;;;;9988252;29;20076;-59
2021/12/28 22:31:24;;;;;;;40.17;24.35;;;;;;;;;;9999963;29;20076;-59
2021/12/28 22:36:24;;;;;;;40.83;24.60;;;;;;;;;;9985115;29;20086;-59
2021/12/28 22:41:22;;;;;;;42.35;25.65;;;;;;;;;;9989539;29;20085;-58
2021/12/28 22:46:20;;;;;;;60.00;28.05;;;;;;;;;;9982610;29;20056;-58
2021/12/28 22:51:19;;;;;;;75.68;28.42;;;;;;;;;;10003007;29;20075;-58
2021/12/28 22:56:19;;;;;;;35.30;23.40;;;;;;;;;;9988796;29;20106;-59
2021/12/28 23:01:20;;;;;;;43.05;25.08;;;;;;;;;;9998165;29;20088;-58
2021/12/28 23:06:18;;;;;;;32.28;23.08;;;;;;;;;;10009377;29;20079;-58
2021/12/28 23:11:17;;;;;;;43.08;23.15;;;;;;;;;;10008345;29;20466;-59
2021/12/28 23:16:16;;;;;;;40.67;21.83;;;;;;;;;;9998162;29;20169;-59
2021/12/28 23:21:15;;;;;;;42.03;23.38;;;;;;;;;;9985806;29;20080;-58
2021/12/28 23:26:13;;;;;;;42.97;24.77;;;;;;;;;;10000334;29;20122;-60
2021/12/28 23:31:15;;;;;;;43.25;24.17;;;;;;;;;;10014022;29;20514;-58
2021/12/28 23:36:15;;;;;;;54.42;24.55;;;;;;;;;;9995263;29;20489;-58
2021/12/28 23:41:15;;;;;;;43.55;24.92;;;;;;;;;;9995171;29;20111;-59
2021/12/28 23:46:13;;;;;;;55.10;29.73;;;;;;;;;;9982401;29;20072;-58
2021/12/28 23:51:16;;;;;;;42.85;24.45;;;;;;;;;;9984073;29;20061;-58
2021/12/28 23:56:15;;;;;;;63.78;29.30;;;;;;;;;;9985382;29;20076;-58
